createdAt,value
2019-04-21T15:56:08.837Z,4.00
2019-04-21T15:59:00.984Z,3.73
2019-04-21T16:01:50.651Z,3.60
2019-04-21T16:04:20.920Z,3.80
2019-04-21T16:06:50.569Z,3.60
2019-04-21T16:09:22.372Z,3.60
2019-04-21T16:11:51.876Z,4.40
2019-04-21T16:14:22.756Z,4.23
2019-04-21T16:16:53.673Z,3.87
2019-04-21T16:19:24.964Z,4.00
2019-04-21T16:21:54.793Z,4.40
2019-04-21T16:24:25.307Z,4.00
2019-04-21T16:26:56.524Z,4.83
2019-04-21T16:29:27.228Z,4.30
2019-04-21T16:31:57.391Z,3.83
2019-04-21T16:34:37.888Z,3.70
2019-04-21T16:36:59.461Z,3.90
2019-04-21T16:39:29.759Z,3.87
2019-04-21T16:42:00.398Z,4.27
2019-04-21T16:44:31.311Z,4.63
2019-04-21T16:47:01.381Z,4.80
2019-04-21T16:49:31.789Z,3.97
2019-04-21T16:52:38.439Z,4.00
2019-04-21T16:55:27.118Z,3.93
2019-04-21T16:58:20.573Z,3.90
2019-04-21T17:00:59.547Z,4.03
2019-04-21T17:03:24.279Z,4.10
2019-04-21T17:05:54.264Z,4.17
2019-04-21T17:08:24.048Z,3.60
2019-04-21T17:11:03.029Z,3.90
2019-04-21T17:13:25.166Z,4.47
2019-04-21T17:16:16.862Z,4.17
2019-04-21T17:18:44.657Z,4.13
2019-04-21T17:21:01.163Z,4.73
2019-04-21T17:23:29.439Z,3.87
2019-04-21T17:25:59.327Z,4.10
2019-04-21T17:28:29.903Z,4.70
2019-04-21T17:31:00.113Z,3.87
2019-04-21T17:33:30.673Z,4.07
2019-04-21T17:36:02.931Z,3.43
2019-04-21T17:38:32.558Z,3.83
2019-04-21T17:41:14.186Z,3.23
2019-04-21T17:43:33.853Z,3.80
2019-04-21T17:46:04.847Z,4.00
2019-04-21T17:48:34.738Z,4.03
2019-04-21T17:51:13.685Z,3.57
2019-04-21T17:54:00.290Z,3.50
2019-04-21T17:56:55.071Z,4.10
2019-04-21T17:59:40.302Z,4.10
2019-04-21T18:01:47.208Z,4.50
2019-04-21T18:04:24.332Z,3.70
2019-04-21T18:07:17.222Z,3.90
2019-04-21T18:09:59.098Z,4.00
2019-04-21T18:12:22.585Z,4.00
2019-04-21T18:14:36.942Z,4.23
2019-04-21T18:17:08.730Z,4.10
2019-04-21T18:19:41.806Z,4.30
2019-04-21T18:22:38.564Z,4.50
2019-04-21T18:25:12.443Z,3.50
2019-04-21T18:27:40.688Z,3.80
2019-04-21T18:30:44.542Z,4.00
2019-04-21T18:33:23.544Z,3.97
2019-04-21T18:36:05.129Z,4.20
2019-04-21T18:39:04.094Z,4.17
2019-04-21T18:41:17.385Z,4.07
2019-04-21T18:44:13.618Z,3.47
2019-04-21T18:47:09.639Z,3.83
2019-04-21T18:49:27.224Z,4.10
2019-04-21T18:52:08.089Z,3.90
2019-04-21T18:54:49.050Z,4.10
2019-04-21T18:57:10.630Z,3.80
2019-04-21T18:59:39.601Z,3.60
2019-04-21T19:02:08.436Z,4.07
2019-04-21T19:04:38.981Z,3.90
2019-04-21T19:07:20.060Z,4.23
2019-04-21T19:12:47.630Z,4.47
2019-04-21T19:14:57.973Z,4.50
2019-04-21T19:17:58.149Z,4.57
2019-04-21T19:20:20.937Z,4.60
2019-04-21T19:22:34.172Z,4.40
2019-04-21T19:27:35.513Z,4.40
2019-04-21T19:32:33.552Z,4.70
2019-04-21T19:34:57.096Z,5.00
2019-04-21T19:37:26.261Z,4.80
2019-04-21T19:40:05.726Z,5.00
2019-04-21T19:42:36.973Z,4.73
2019-04-21T19:45:11.847Z,4.90
2019-04-21T19:47:44.729Z,4.90
2019-04-21T19:50:16.918Z,5.20
2019-04-21T19:52:40.922Z,5.67
2019-04-21T19:55:00.484Z,5.73
2019-04-21T19:57:31.304Z,5.50
2019-04-21T20:00:04.290Z,5.17
2019-04-21T20:02:32.292Z,5.80
2019-04-21T20:05:07.018Z,6.20
2019-04-21T20:07:48.230Z,6.37
2019-04-21T20:10:27.013Z,5.30
2019-04-21T20:12:57.012Z,5.33
2019-04-21T20:15:33.008Z,4.60
2019-04-21T20:17:55.128Z,5.40
2019-04-21T20:20:11.267Z,4.53
2019-04-21T20:22:44.095Z,5.73
2019-04-21T20:25:16.114Z,5.60
2019-04-21T20:27:52.833Z,5.17
2019-04-21T20:30:31.081Z,4.90
2019-04-21T20:33:14.164Z,4.93
2019-04-21T20:35:44.846Z,5.20
2019-04-21T20:38:04.779Z,4.90
2019-04-21T20:40:31.811Z,5.50
2019-04-21T20:43:11.462Z,4.60
2019-04-21T20:45:59.345Z,5.07
2019-04-21T20:47:59.926Z,5.00
2019-04-21T20:50:37.965Z,5.07
2019-04-21T20:53:17.914Z,6.07
2019-04-21T20:55:48.471Z,5.13
2019-04-21T20:58:15.585Z,4.90
2019-04-21T21:00:55.742Z,5.00
2019-04-21T21:03:24.325Z,5.00
2019-04-21T21:05:49.910Z,4.73
2019-04-21T21:08:34.574Z,5.10
2019-04-21T21:10:53.236Z,4.93
2019-04-21T21:18:50.134Z,5.07
2019-04-21T21:20:59.112Z,5.47
2019-04-21T21:23:34.690Z,5.57
2019-04-21T21:26:03.085Z,5.73
2019-04-21T21:28:29.088Z,5.73
2019-04-21T21:31:04.219Z,5.90
2019-04-21T21:33:37.349Z,5.63
2019-04-21T21:36:06.492Z,5.60
2019-04-21T21:38:40.880Z,6.33
2019-04-21T21:40:59.870Z,5.90
2019-04-21T21:43:25.019Z,5.40
2019-04-21T21:45:59.063Z,5.30
2019-04-21T21:48:38.300Z,5.50
2019-04-21T21:51:08.189Z,5.80
2019-04-21T21:53:29.028Z,5.70
2019-04-21T21:55:58.552Z,5.70
2019-04-21T21:58:36.070Z,5.80
2019-04-21T22:01:04.129Z,5.13
2019-04-21T22:03:36.751Z,6.17
2019-04-21T22:06:07.827Z,5.50
2019-04-21T22:08:34.380Z,5.27
2019-04-21T22:11:05.432Z,5.50
2019-04-21T22:13:44.745Z,5.80
2019-04-21T22:16:10.596Z,5.37
2019-04-21T22:19:01.538Z,4.90
2019-04-21T22:21:18.167Z,6.23
2019-04-21T22:23:49.866Z,5.67
2019-04-21T22:26:11.461Z,5.70
2019-04-21T22:28:41.547Z,5.47
2019-04-21T22:31:16.387Z,5.90
2019-04-21T22:33:48.306Z,5.03
2019-04-21T22:36:26.717Z,4.80
2019-04-21T22:39:04.883Z,5.33
2019-04-21T22:41:26.623Z,5.03
2019-04-21T22:43:49.828Z,5.50
2019-04-21T22:46:18.138Z,5.17
2019-04-21T22:48:55.937Z,5.70
2019-04-21T22:51:28.455Z,5.27
2019-04-21T22:53:55.504Z,5.30
2019-04-21T22:56:26.818Z,5.60
2019-04-21T22:58:54.891Z,6.10
2019-04-21T23:01:33.510Z,5.80
2019-04-21T23:04:00.857Z,5.47
2019-04-21T23:06:30.898Z,5.43
2019-04-21T23:08:59.138Z,5.70
2019-04-21T23:11:38.679Z,5.73
2019-04-21T23:14:04.298Z,5.57
2019-04-21T23:16:35.613Z,5.47
2019-04-21T23:19:20.133Z,5.50
2019-04-21T23:21:53.853Z,5.40
2019-04-21T23:24:30.230Z,5.30
2019-04-21T23:26:50.730Z,5.57
2019-04-21T23:29:32.315Z,5.00
2019-04-21T23:31:56.044Z,5.60
2019-04-21T23:34:12.989Z,6.00
2019-04-21T23:36:48.219Z,5.73
2019-04-21T23:39:19.048Z,4.90
2019-04-21T23:41:50.623Z,4.93
2019-04-21T23:44:15.476Z,5.43
2019-04-21T23:46:45.821Z,6.13
2019-04-21T23:49:30.619Z,5.10
2019-04-21T23:51:54.673Z,5.00
2019-04-21T23:54:17.754Z,5.00
2019-04-21T23:56:47.809Z,5.37
2019-04-21T23:59:18.056Z,5.07
